Flood From: 21-02-2018 18:00 Until: 22-02-2018 16:00 warning for: Flood Level: Yellow info button

Although rather usual in this region, locally or potentially dangerous phenomena are expected. (such as local winds, summer thunderstorms, rising streams or high waves) Be aware and pay attention to the latest weather updates, especially if you carry out activities exposed to weather or close to a stream or shoreline. 


Meteo18 Weather Cam more information Meteo18 Weather Cam


Thunder radar more information blitzortung!


Rain radar more information rain snow radar


Visit our other weather sites:

Template documentation
and downloads

And another site



Weather Underground History page Text

Daily Summary for October 30, 2017 Units:  Both    English   Metric
« Previous Day
Next Day »
Daily Weekly Monthly Yearly Custom
  High: Low: Average:
Temperature: TemperatureC °F /  -17.8 °C 3.4 °F /  -15.9 °C 7.5 °F /  -13.6 °C
Dew Point: DewpointC °F /  -17.8 °C 2.7 °F /  -16.3 °C 4.5 °F /  -15.3 °C
Humidity: Humidity % 66 % 81 %
Wind Speed: WindSpeedKMH mph /  0 km/h - 8.2 mph /  13.2 km/h
Wind Gust: WindSpeedGustKMH mph /  0 km/h - -
Wind:- - East
Pressure: PressurehPa in /  0 hPa 1024.3 in /  34682.8 hPa -
Precipitation: 0.0 in /  0 mm    
Historical Graphs
 
 
Tabular Data for October 30, 2017
Time Temperature Dew Point Pressure Wind Wind Speed Wind Gust Humidity Rainfall Rate (Hourly)
TemperatureC °F /  -17.8 °C DewpointC °F /  -17.8 °C PressurehPa in /  0 hPa Calm     Humidity % HourlyPrecipMM in /  0 mm
00:02 7.9 °F /  -13.4 °C 6.0 °F /  -14.4 °C 1024.3 in /  34682.8 hPa NNE 12.9 mph /  20.8 km/h 17.7 mph /  28.5 km/h 88 % 0.0 in /  0 mm
00:12 7.6 °F /  -13.6 °C 5.9 °F /  -14.5 °C 1024.3 in /  34682.8 hPa NNW 3.2 mph /  5.1 km/h 17.7 mph /  28.5 km/h 89 % 0.0 in /  0 mm
00:17 7.4 °F /  -13.7 °C 5.7 °F /  -14.6 °C 1024.3 in /  34682.8 hPa NW 6.4 mph /  10.3 km/h 14.5 mph /  23.3 km/h 89 % 0.0 in /  0 mm
00:22 7.3 °F /  -13.7 °C 5.6 °F /  -14.7 °C 1024.6 in /  34693 hPa ENE 1.6 mph /  2.6 km/h 14.5 mph /  23.3 km/h 89 % 0.0 in /  0 mm
00:32 7.1 °F /  -13.8 °C 5.4 °F /  -14.8 °C 1024.6 in /  34693 hPa North 8.0 mph /  12.9 km/h 17.7 mph /  28.5 km/h 89 % 0.0 in /  0 mm
00:42 6.9 °F /  -13.9 °C 5.4 °F /  -14.8 °C 1024.6 in /  34693 hPa North 4.8 mph /  7.7 km/h 14.5 mph /  23.3 km/h 90 % 0.0 in /  0 mm
00:47 6.9 °F /  -13.9 °C 5.2 °F /  -14.9 °C 1024.6 in /  34693 hPa NNW 8.0 mph /  12.9 km/h 14.5 mph /  23.3 km/h 89 % 0.0 in /  0 mm
00:52 6.8 °F /  -14 °C 5.3 °F /  -14.8 °C 1024.6 in /  34693 hPa NNE 4.8 mph /  7.7 km/h 17.7 mph /  28.5 km/h 90 % 0.0 in /  0 mm
01:02 6.7 °F /  -14.1 °C 5.2 °F /  -14.9 °C 1024.6 in /  34693 hPa ENE 6.4 mph /  10.3 km/h 19.3 mph /  31.1 km/h 90 % 0.0 in /  0 mm
01:12 6.6 °F /  -14.1 °C 5.1 °F /  -14.9 °C 1024.6 in /  34693 hPa NW 4.8 mph /  7.7 km/h 19.3 mph /  31.1 km/h 90 % 0.0 in /  0 mm
01:17 6.6 °F /  -14.1 °C 5.1 °F /  -14.9 °C 1024.6 in /  34693 hPa Calm   12.9 mph /  20.8 km/h 90 % 0.0 in /  0 mm
01:22 6.5 °F /  -14.2 °C 5.0 °F /  -15 °C 1024.6 in /  34693 hPa NNE 4.8 mph /  7.7 km/h 16.1 mph /  25.9 km/h 90 % 0.0 in /  0 mm
01:27 6.5 °F /  -14.2 °C 5.0 °F /  -15 °C 1024.9 in /  34703.1 hPa NNE 1.6 mph /  2.6 km/h 16.1 mph /  25.9 km/h 90 % 0.0 in /  0 mm
01:32 6.5 °F /  -14.2 °C 5.1 °F /  -14.9 °C 1024.9 in /  34703.1 hPa NE 1.6 mph /  2.6 km/h 16.1 mph /  25.9 km/h 91 % 0.0 in /  0 mm
01:37 6.4 °F /  -14.2 °C 5.0 °F /  -15 °C 1024.9 in /  34703.1 hPa NE 6.4 mph /  10.3 km/h 12.9 mph /  20.8 km/h 91 % 0.0 in /  0 mm
01:42 6.3 °F /  -14.3 °C 4.9 °F /  -15.1 °C 1024.9 in /  34703.1 hPa NNE 6.4 mph /  10.3 km/h 12.9 mph /  20.8 km/h 91 % 0.0 in /  0 mm
01:52 6.2 °F /  -14.3 °C 4.8 °F /  -15.1 °C 1024.9 in /  34703.1 hPa NE 8.0 mph /  12.9 km/h 11.3 mph /  18.2 km/h 91 % 0.0 in /  0 mm
01:57 6.1 °F /  -14.4 °C 4.7 °F /  -15.2 °C 1024.9 in /  34703.1 hPa Calm   11.3 mph /  18.2 km/h 91 % 0.0 in /  0 mm
02:02 6.1 °F /  -14.4 °C 4.7 °F /  -15.2 °C 1024.9 in /  34703.1 hPa NE 6.4 mph /  10.3 km/h 11.3 mph /  18.2 km/h 91 % 0.0 in /  0 mm
02:12 6.1 °F /  -14.4 °C 4.9 °F /  -15.1 °C 1024.9 in /  34703.1 hPa WNW 3.2 mph /  5.1 km/h 14.5 mph /  23.3 km/h 92 % 0.0 in /  0 mm
02:17 6.1 °F /  -14.4 °C 4.9 °F /  -15.1 °C 1024.9 in /  34703.1 hPa North 11.3 mph /  18.2 km/h 14.5 mph /  23.3 km/h 92 % 0.0 in /  0 mm
02:22 6.1 °F /  -14.4 °C 4.9 °F /  -15.1 °C 1024.9 in /  34703.1 hPa NE 4.8 mph /  7.7 km/h 16.1 mph /  25.9 km/h 92 % 0.0 in /  0 mm
02:27 6.0 °F /  -14.4 °C 4.6 °F /  -15.2 °C 1024.9 in /  34703.1 hPa North 6.4 mph /  10.3 km/h 16.1 mph /  25.9 km/h 91 % 0.0 in /  0 mm
02:32 5.9 °F /  -14.5 °C 4.7 °F /  -15.2 °C 1024.9 in /  34703.1 hPa North 4.8 mph /  7.7 km/h 14.5 mph /  23.3 km/h 92 % 0.0 in /  0 mm
02:47 5.8 °F /  -14.6 °C 4.6 °F /  -15.2 °C 1024.9 in /  34703.1 hPa Calm   16.1 mph /  25.9 km/h 92 % 0.0 in /  0 mm
02:57 5.7 °F /  -14.6 °C 4.5 °F /  -15.3 °C 1024.9 in /  34703.1 hPa NNE 6.4 mph /  10.3 km/h 16.1 mph /  25.9 km/h 92 % 0.0 in /  0 mm
03:02 5.6 °F /  -14.7 °C 4.4 °F /  -15.3 °C 1024.9 in /  34703.1 hPa NE 3.2 mph /  5.1 km/h 14.5 mph /  23.3 km/h 92 % 0.0 in /  0 mm
03:12 5.5 °F /  -14.7 °C 4.3 °F /  -15.4 °C 1024.9 in /  34703.1 hPa NE 8.0 mph /  12.9 km/h 12.9 mph /  20.8 km/h 92 % 0.0 in /  0 mm
03:17 5.2 °F /  -14.9 °C 4.0 °F /  -15.6 °C 1024.9 in /  34703.1 hPa North 1.6 mph /  2.6 km/h 12.9 mph /  20.8 km/h 92 % 0.0 in /  0 mm
03:22 5.2 °F /  -14.9 °C 4.0 °F /  -15.6 °C 1024.9 in /  34703.1 hPa North 1.6 mph /  2.6 km/h 12.9 mph /  20.8 km/h 92 % 0.0 in /  0 mm
03:27 5.2 °F /  -14.9 °C 4.0 °F /  -15.6 °C 1024.9 in /  34703.1 hPa North 1.6 mph /  2.6 km/h 12.9 mph /  20.8 km/h 92 % 0.0 in /  0 mm
07:57 3.4 °F /  -15.9 °C 2.7 °F /  -16.3 °C 1027.0 in /  34774.2 hPa Calm   -1607.4 mph /  -2586.8 km/h 95 % 0 in /  0 mm
08:02 3.5 °F /  -15.8 °C 2.8 °F /  -16.2 °C 1027.3 in /  34784.4 hPa North 1.6 mph /  2.6 km/h -1607.4 mph /  -2586.8 km/h 95 % 0 in /  0 mm
08:07 3.6 °F /  -15.8 °C 3.0 °F /  -16.1 °C 1027.3 in /  34784.4 hPa Calm   4.8 mph /  7.7 km/h 96 % 0.0 in /  0 mm
08:12 3.6 °F /  -15.8 °C 3.0 °F /  -16.1 °C 1027.3 in /  34784.4 hPa Calm   4.8 mph /  7.7 km/h 96 % 0.0 in /  0 mm
08:22 3.9 °F /  -15.6 °C 3.3 °F /  -15.9 °C 1027.7 in /  34797.9 hPa North 1.6 mph /  2.6 km/h 8.0 mph /  12.9 km/h 96 % 0.0 in /  0 mm
08:27 4.0 °F /  -15.6 °C 3.4 °F /  -15.9 °C 1027.3 in /  34784.4 hPa NNE 3.2 mph /  5.1 km/h 8.0 mph /  12.9 km/h 96 % 0.0 in /  0 mm
08:32 4.1 °F /  -15.5 °C 3.4 °F /  -15.9 °C 1027.7 in /  34797.9 hPa NNE 8.0 mph /  12.9 km/h 8.0 mph /  12.9 km/h 95 % 0.0 in /  0 mm
08:37 4.3 °F /  -15.4 °C 3.6 °F /  -15.8 °C 1027.7 in /  34797.9 hPa Calm   11.3 mph /  18.2 km/h 95 % 0.0 in /  0 mm
08:42 4.4 °F /  -15.3 °C 3.7 °F /  -15.7 °C 1027.7 in /  34797.9 hPa NW 1.6 mph /  2.6 km/h 11.3 mph /  18.2 km/h 95 % 0.0 in /  0 mm
08:52 4.8 °F /  -15.1 °C 4.1 °F /  -15.5 °C 1027.7 in /  34797.9 hPa NNW 3.2 mph /  5.1 km/h 11.3 mph /  18.2 km/h 95 % 0.0 in /  0 mm
08:57 4.9 °F /  -15.1 °C 4.2 °F /  -15.4 °C 1027.7 in /  34797.9 hPa NE 4.8 mph /  7.7 km/h 9.7 mph /  15.6 km/h 95 % 0.0 in /  0 mm
09:02 5.1 °F /  -14.9 °C 4.4 °F /  -15.3 °C 1027.7 in /  34797.9 hPa NNW 4.8 mph /  7.7 km/h 9.7 mph /  15.6 km/h 95 % 0.0 in /  0 mm
09:12 5.6 °F /  -14.7 °C 4.6 °F /  -15.2 °C 1027.7 in /  34797.9 hPa NNE 1.6 mph /  2.6 km/h 14.5 mph /  23.3 km/h 93 % 0.0 in /  0 mm
09:22 5.9 °F /  -14.5 °C 4.7 °F /  -15.2 °C 1027.7 in /  34797.9 hPa NNE 6.4 mph /  10.3 km/h 16.1 mph /  25.9 km/h 92 % 0.0 in /  0 mm
09:32 6.2 °F /  -14.3 °C 4.7 °F /  -15.2 °C 1027.7 in /  34797.9 hPa NE 8.0 mph /  12.9 km/h 19.3 mph /  31.1 km/h 90 % 0.0 in /  0 mm
09:37 6.3 °F /  -14.3 °C 4.8 °F /  -15.1 °C 1027.7 in /  34797.9 hPa NE 12.9 mph /  20.8 km/h 17.7 mph /  28.5 km/h 90 % 0.0 in /  0 mm
09:42 6.4 °F /  -14.2 °C 4.9 °F /  -15.1 °C 1027.3 in /  34784.4 hPa NE 9.7 mph /  15.6 km/h 17.7 mph /  28.5 km/h 90 % 0.0 in /  0 mm
09:52 6.6 °F /  -14.1 °C 4.9 °F /  -15.1 °C 1027.3 in /  34784.4 hPa North 6.4 mph /  10.3 km/h 17.7 mph /  28.5 km/h 89 % 0.0 in /  0 mm
09:57 6.7 °F /  -14.1 °C 5.0 °F /  -15 °C 1027.7 in /  34797.9 hPa NE 9.7 mph /  15.6 km/h 20.9 mph /  33.6 km/h 89 % 0.0 in /  0 mm
10:02 6.8 °F /  -14 °C 5.1 °F /  -14.9 °C 1027.7 in /  34797.9 hPa North 12.9 mph /  20.8 km/h 20.9 mph /  33.6 km/h 89 % 0.0 in /  0 mm
10:07 6.8 °F /  -14 °C 5.0 °F /  -15 °C 1027.7 in /  34797.9 hPa NE 11.3 mph /  18.2 km/h 17.7 mph /  28.5 km/h 88 % 0.0 in /  0 mm
10:12 6.9 °F /  -13.9 °C 5.1 °F /  -14.9 °C 1027.7 in /  34797.9 hPa NNE 11.3 mph /  18.2 km/h 17.7 mph /  28.5 km/h 88 % 0.0 in /  0 mm
10:17 6.9 °F /  -13.9 °C 5.1 °F /  -14.9 °C 1027.3 in /  34784.4 hPa NE 17.7 mph /  28.5 km/h 20.9 mph /  33.6 km/h 88 % 0.0 in /  0 mm
10:22 7.1 °F /  -13.8 °C 5.2 °F /  -14.9 °C 1027.3 in /  34784.4 hPa NNE 8.0 mph /  12.9 km/h 20.9 mph /  33.6 km/h 88 % 0.0 in /  0 mm
10:27 7.2 °F /  -13.8 °C 5.2 °F /  -14.9 °C 1027.3 in /  34784.4 hPa NE 6.4 mph /  10.3 km/h 22.5 mph /  36.2 km/h 87 % 0.0 in /  0 mm
10:32 7.4 °F /  -13.7 °C 5.4 °F /  -14.8 °C 1027.3 in /  34784.4 hPa NE 11.3 mph /  18.2 km/h 22.5 mph /  36.2 km/h 87 % 0.0 in /  0 mm
10:42 7.7 °F /  -13.5 °C 5.7 °F /  -14.6 °C 1027.3 in /  34784.4 hPa NNE 20.9 mph /  33.6 km/h 20.9 mph /  33.6 km/h 87 % 0.0 in /  0 mm
10:47 7.7 °F /  -13.5 °C 5.5 °F /  -14.7 °C 1027.7 in /  34797.9 hPa NNE 4.8 mph /  7.7 km/h 20.9 mph /  33.6 km/h 86 % 0.0 in /  0 mm
10:52 7.8 °F /  -13.4 °C 5.4 °F /  -14.8 °C 1027.7 in /  34797.9 hPa NNE 19.3 mph /  31.1 km/h 20.9 mph /  33.6 km/h 85 % 0.0 in /  0 mm
11:02 7.9 °F /  -13.4 °C 5.5 °F /  -14.7 °C 1027.7 in /  34797.9 hPa NE 14.5 mph /  23.3 km/h 25.7 mph /  41.4 km/h 85 % 0.0 in /  0 mm
11:07 8.2 °F /  -13.2 °C 5.8 °F /  -14.6 °C 1027.7 in /  34797.9 hPa NE 20.9 mph /  33.6 km/h 25.7 mph /  41.4 km/h 85 % 0.0 in /  0 mm
11:12 8.1 °F /  -13.3 °C 5.7 °F /  -14.6 °C 1027.7 in /  34797.9 hPa North 14.5 mph /  23.3 km/h 25.7 mph /  41.4 km/h 85 % 0.0 in /  0 mm
11:17 8.2 °F /  -13.2 °C 5.7 °F /  -14.6 °C 1027.7 in /  34797.9 hPa NE 6.4 mph /  10.3 km/h 29.0 mph /  46.7 km/h 84 % 0.0 in /  0 mm
11:27 8.4 °F /  -13.1 °C 6.0 °F /  -14.4 °C 1027.7 in /  34797.9 hPa NNE 19.3 mph /  31.1 km/h 27.4 mph /  44.1 km/h 85 % 0.0 in /  0 mm
11:32 8.6 °F /  -13 °C 6.0 °F /  -14.4 °C 1027.7 in /  34797.9 hPa NE 9.7 mph /  15.6 km/h 27.4 mph /  44.1 km/h 84 % 0.0 in /  0 mm
11:37 8.8 °F /  -12.9 °C 6.2 °F /  -14.3 °C 1027.7 in /  34797.9 hPa ENE 8.0 mph /  12.9 km/h 27.4 mph /  44.1 km/h 84 % 0.0 in /  0 mm
11:42 8.9 °F /  -12.8 °C 6.0 °F /  -14.4 °C 1027.7 in /  34797.9 hPa North 19.3 mph /  31.1 km/h 27.4 mph /  44.1 km/h 82 % 0.0 in /  0 mm
11:47 9.0 °F /  -12.8 °C 6.1 °F /  -14.4 °C 1027.7 in /  34797.9 hPa NNE 9.7 mph /  15.6 km/h 25.7 mph /  41.4 km/h 82 % 0.0 in /  0 mm
11:52 9.2 °F /  -12.7 °C 6.5 °F /  -14.2 °C 1027.7 in /  34797.9 hPa NNE 12.9 mph /  20.8 km/h 25.7 mph /  41.4 km/h 83 % 0.0 in /  0 mm
11:57 9.2 °F /  -12.7 °C 5.9 °F /  -14.5 °C 1027.7 in /  34797.9 hPa NNE 11.3 mph /  18.2 km/h 22.5 mph /  36.2 km/h 80 % 0.0 in /  0 mm
12:02 9.2 °F /  -12.7 °C 5.7 °F /  -14.6 °C 1027.7 in /  34797.9 hPa NNE 14.5 mph /  23.3 km/h 22.5 mph /  36.2 km/h 79 % 0.0 in /  0 mm
12:12 9.5 °F /  -12.5 °C 5.7 °F /  -14.6 °C 1027.3 in /  34784.4 hPa NE 6.4 mph /  10.3 km/h 25.7 mph /  41.4 km/h 77 % 0.0 in /  0 mm
12:17 9.6 °F /  -12.4 °C 5.6 °F /  -14.7 °C 1027.7 in /  34797.9 hPa NNE 11.3 mph /  18.2 km/h 25.7 mph /  41.4 km/h 76 % 0.0 in /  0 mm
12:22 10.0 °F /  -12.2 °C 6.2 °F /  -14.3 °C 1027.3 in /  34784.4 hPa NE 4.8 mph /  7.7 km/h 25.7 mph /  41.4 km/h 77 % 0.0 in /  0 mm
12:32 10.2 °F /  -12.1 °C 6.0 °F /  -14.4 °C 1027.3 in /  34784.4 hPa NE 16.1 mph /  25.9 km/h 27.4 mph /  44.1 km/h 75 % 0.0 in /  0 mm
12:37 10.3 °F /  -12.1 °C 5.7 °F /  -14.6 °C 1027.7 in /  34797.9 hPa NE 22.5 mph /  36.2 km/h 27.4 mph /  44.1 km/h 73 % 0.0 in /  0 mm
12:42 10.2 °F /  -12.1 °C 5.4 °F /  -14.8 °C 1027.7 in /  34797.9 hPa ENE 9.7 mph /  15.6 km/h 25.7 mph /  41.4 km/h 72 % 0.0 in /  0 mm
12:52 10.2 °F /  -12.1 °C 5.0 °F /  -15 °C 1027.3 in /  34784.4 hPa NW 9.7 mph /  15.6 km/h 25.7 mph /  41.4 km/h 70 % 0.0 in /  0 mm
12:57 10.2 °F /  -12.1 °C 4.8 °F /  -15.1 °C 1027.3 in /  34784.4 hPa ENE 12.9 mph /  20.8 km/h 30.6 mph /  49.2 km/h 69 % 0.0 in /  0 mm
13:02 10.1 °F /  -12.2 °C 4.9 °F /  -15.1 °C 1027.3 in /  34784.4 hPa NNE 14.5 mph /  23.3 km/h 30.6 mph /  49.2 km/h 70 % 0.0 in /  0 mm
13:12 9.9 °F /  -12.3 °C 4.7 °F /  -15.2 °C 1027.3 in /  34784.4 hPa NE 19.3 mph /  31.1 km/h 35.4 mph /  57 km/h 70 % 0.0 in /  0 mm
13:22 9.9 °F /  -12.3 °C 4.5 °F /  -15.3 °C 1027.3 in /  34784.4 hPa ENE 16.1 mph /  25.9 km/h 33.8 mph /  54.4 km/h 69 % 0.0 in /  0 mm
13:32 9.9 °F /  -12.3 °C 4.9 °F /  -15.1 °C 1027.3 in /  34784.4 hPa NE 14.5 mph /  23.3 km/h 25.7 mph /  41.4 km/h 71 % 0.0 in /  0 mm
13:37 10.2 °F /  -12.1 °C 5.0 °F /  -15 °C 1027.3 in /  34784.4 hPa NE 11.3 mph /  18.2 km/h 25.7 mph /  41.4 km/h 70 % 0.0 in /  0 mm
13:42 10.0 °F /  -12.2 °C 4.6 °F /  -15.2 °C 1027.3 in /  34784.4 hPa North 16.1 mph /  25.9 km/h 25.7 mph /  41.4 km/h 69 % 0.0 in /  0 mm
13:52 9.9 °F /  -12.3 °C 5.1 °F /  -14.9 °C 1027.7 in /  34797.9 hPa NE 12.9 mph /  20.8 km/h 27.4 mph /  44.1 km/h 72 % 0.0 in /  0 mm
13:57 10.3 °F /  -12.1 °C 5.7 °F /  -14.6 °C 1027.3 in /  34784.4 hPa NE 8.0 mph /  12.9 km/h 27.4 mph /  44.1 km/h 73 % 0.0 in /  0 mm
14:02 10.2 °F /  -12.1 °C 4.6 °F /  -15.2 °C 1027.3 in /  34784.4 hPa NNE 27.4 mph /  44.1 km/h 27.4 mph /  44.1 km/h 68 % 0.0 in /  0 mm
14:12 9.8 °F /  -12.3 °C 4.6 °F /  -15.2 °C 1027.3 in /  34784.4 hPa ENE 14.5 mph /  23.3 km/h 29.0 mph /  46.7 km/h 70 % 0.0 in /  0 mm
14:17 10.0 °F /  -12.2 °C 4.4 °F /  -15.3 °C 1027.3 in /  34784.4 hPa ENE 17.7 mph /  28.5 km/h 29.0 mph /  46.7 km/h 68 % 0.0 in /  0 mm
14:22 10.3 °F /  -12.1 °C 4.7 °F /  -15.2 °C 1027.3 in /  34784.4 hPa ENE 8.0 mph /  12.9 km/h 25.7 mph /  41.4 km/h 68 % 0.0 in /  0 mm
14:32 10.7 °F /  -11.8 °C 5.0 °F /  -15 °C 1027.3 in /  34784.4 hPa NE 8.0 mph /  12.9 km/h 25.7 mph /  41.4 km/h 68 % 0.0 in /  0 mm
14:37 10.8 °F /  -11.8 °C 5.1 °F /  -14.9 °C 1027.3 in /  34784.4 hPa NE 17.7 mph /  28.5 km/h 25.7 mph /  41.4 km/h 68 % 0.0 in /  0 mm
14:42 10.6 °F /  -11.9 °C 4.9 °F /  -15.1 °C 1027.3 in /  34784.4 hPa NE 11.3 mph /  18.2 km/h 25.7 mph /  41.4 km/h 68 % 0.0 in /  0 mm
14:52 10.4 °F /  -12 °C 4.5 °F /  -15.3 °C 1027.3 in /  34784.4 hPa NNW 12.9 mph /  20.8 km/h 30.6 mph /  49.2 km/h 67 % 0.0 in /  0 mm
14:57 10.6 °F /  -11.9 °C 4.5 °F /  -15.3 °C 1027.3 in /  34784.4 hPa ENE 9.7 mph /  15.6 km/h 30.6 mph /  49.2 km/h 66 % 0.0 in /  0 mm
15:02 10.4 °F /  -12 °C 4.5 °F /  -15.3 °C 1027.3 in /  34784.4 hPa NE 14.5 mph /  23.3 km/h 30.6 mph /  49.2 km/h 67 % 0.0 in /  0 mm
15:12 10.4 °F /  -12 °C 4.7 °F /  -15.2 °C 1027.3 in /  34784.4 hPa NE 9.7 mph /  15.6 km/h 24.1 mph /  38.8 km/h 68 % 0.0 in /  0 mm
15:17 10.5 °F /  -11.9 °C 5.1 °F /  -14.9 °C 1027.3 in /  34784.4 hPa NNE 12.9 mph /  20.8 km/h 24.1 mph /  38.8 km/h 69 % 0.0 in /  0 mm
15:22 10.4 °F /  -12 °C 5.2 °F /  -14.9 °C 1027.3 in /  34784.4 hPa NE 11.3 mph /  18.2 km/h 27.4 mph /  44.1 km/h 70 % 0.0 in /  0 mm
15:27 10.1 °F /  -12.2 °C 4.9 °F /  -15.1 °C 1027.7 in /  34797.9 hPa NNE 6.4 mph /  10.3 km/h 27.4 mph /  44.1 km/h 70 % 0.0 in /  0 mm
15:32 9.9 °F /  -12.3 °C 5.1 °F /  -14.9 °C 1027.7 in /  34797.9 hPa North 9.7 mph /  15.6 km/h 24.1 mph /  38.8 km/h 72 % 0.0 in /  0 mm
15:42 10.1 °F /  -12.2 °C 5.1 °F /  -14.9 °C 1027.7 in /  34797.9 hPa North 11.3 mph /  18.2 km/h 24.1 mph /  38.8 km/h 71 % 0.0 in /  0 mm
15:52 10.2 °F /  -12.1 °C 5.0 °F /  -15 °C 1027.7 in /  34797.9 hPa NNW 8.0 mph /  12.9 km/h 27.4 mph /  44.1 km/h 70 % 0.0 in /  0 mm
15:57 10.2 °F /  -12.1 °C 5.2 °F /  -14.9 °C 1027.7 in /  34797.9 hPa NE 4.8 mph /  7.7 km/h 27.4 mph /  44.1 km/h 71 % 0.0 in /  0 mm
16:02 10.2 °F /  -12.1 °C 4.8 °F /  -15.1 °C 1027.7 in /  34797.9 hPa NNE 8.0 mph /  12.9 km/h 27.4 mph /  44.1 km/h 69 % 0.0 in /  0 mm
16:12 10.1 °F /  -12.2 °C 4.7 °F /  -15.2 °C 1027.7 in /  34797.9 hPa NE 16.1 mph /  25.9 km/h 25.7 mph /  41.4 km/h 69 % 0.0 in /  0 mm
16:17 10.1 °F /  -12.2 °C 4.9 °F /  -15.1 °C 1027.7 in /  34797.9 hPa NNE 17.7 mph /  28.5 km/h 25.7 mph /  41.4 km/h 70 % 0.0 in /  0 mm
16:22 10.0 °F /  -12.2 °C 5.0 °F /  -15 °C 1027.7 in /  34797.9 hPa NE 16.1 mph /  25.9 km/h 25.7 mph /  41.4 km/h 71 % 0.0 in /  0 mm
16:32 10.0 °F /  -12.2 °C 4.8 °F /  -15.1 °C 1027.7 in /  34797.9 hPa NNE 9.7 mph /  15.6 km/h 24.1 mph /  38.8 km/h 70 % 0.0 in /  0 mm
16:37 10.1 °F /  -12.2 °C 4.9 °F /  -15.1 °C 1027.7 in /  34797.9 hPa ENE 12.9 mph /  20.8 km/h 22.5 mph /  36.2 km/h 70 % 0.0 in /  0 mm
16:42 10.0 °F /  -12.2 °C 4.8 °F /  -15.1 °C 1027.7 in /  34797.9 hPa NE 12.9 mph /  20.8 km/h 22.5 mph /  36.2 km/h 70 % 0.0 in /  0 mm
16:47 9.9 °F /  -12.3 °C 4.7 °F /  -15.2 °C 1027.7 in /  34797.9 hPa NE 16.1 mph /  25.9 km/h 22.5 mph /  36.2 km/h 70 % 0.0 in /  0 mm
16:57 9.8 °F /  -12.3 °C 4.4 °F /  -15.3 °C 1027.7 in /  34797.9 hPa NE 9.7 mph /  15.6 km/h 19.3 mph /  31.1 km/h 69 % 0.0 in /  0 mm
17:02 9.8 °F /  -12.3 °C 4.4 °F /  -15.3 °C 1027.7 in /  34797.9 hPa NE 8.0 mph /  12.9 km/h 19.3 mph /  31.1 km/h 69 % 0.0 in /  0 mm
17:12 9.8 °F /  -12.3 °C 4.6 °F /  -15.2 °C 1027.7 in /  34797.9 hPa NE 6.4 mph /  10.3 km/h 17.7 mph /  28.5 km/h 70 % 0.0 in /  0 mm
17:17 9.7 °F /  -12.4 °C 4.5 °F /  -15.3 °C 1027.7 in /  34797.9 hPa NE 20.9 mph /  33.6 km/h 20.9 mph /  33.6 km/h 70 % 0.0 in /  0 mm
17:22 9.6 °F /  -12.4 °C 4.4 °F /  -15.3 °C 1027.7 in /  34797.9 hPa NE 11.3 mph /  18.2 km/h 20.9 mph /  33.6 km/h 70 % 0.0 in /  0 mm
17:32 9.2 °F /  -12.7 °C 4.4 °F /  -15.3 °C 1028.0 in /  34808.1 hPa NNE 1.6 mph /  2.6 km/h 22.5 mph /  36.2 km/h 72 % 0.0 in /  0 mm
17:37 8.9 °F /  -12.8 °C 4.3 °F /  -15.4 °C 1028.0 in /  34808.1 hPa NE 4.8 mph /  7.7 km/h 22.5 mph /  36.2 km/h 73 % 0.0 in /  0 mm
17:42 8.8 °F /  -12.9 °C 4.4 °F /  -15.3 °C 1028.0 in /  34808.1 hPa ENE 8.0 mph /  12.9 km/h 22.5 mph /  36.2 km/h 74 % 0.0 in /  0 mm
17:47 8.8 °F /  -12.9 °C 4.2 °F /  -15.4 °C 1028.0 in /  34808.1 hPa NE 14.5 mph /  23.3 km/h 19.3 mph /  31.1 km/h 73 % 0.0 in /  0 mm
17:52 8.8 °F /  -12.9 °C 4.2 °F /  -15.4 °C 1028.0 in /  34808.1 hPa NNW 3.2 mph /  5.1 km/h 19.3 mph /  31.1 km/h 73 % 0.0 in /  0 mm
17:57 8.9 °F /  -12.8 °C 4.3 °F /  -15.4 °C 1028.0 in /  34808.1 hPa NNE 8.0 mph /  12.9 km/h 20.9 mph /  33.6 km/h 73 % 0.0 in /  0 mm
18:02 8.8 °F /  -12.9 °C 4.4 °F /  -15.3 °C 1028.3 in /  34818.2 hPa NE 11.3 mph /  18.2 km/h 20.9 mph /  33.6 km/h 74 % 0.0 in /  0 mm
18:12 8.8 °F /  -12.9 °C 4.6 °F /  -15.2 °C 1028.3 in /  34818.2 hPa NE 8.0 mph /  12.9 km/h 19.3 mph /  31.1 km/h 75 % 0.0 in /  0 mm
18:17 8.7 °F /  -12.9 °C 4.5 °F /  -15.3 °C 1028.3 in /  34818.2 hPa NE 4.8 mph /  7.7 km/h 12.9 mph /  20.8 km/h 75 % 0.0 in /  0 mm
18:22 8.6 °F /  -13 °C 4.4 °F /  -15.3 °C 1028.7 in /  34831.8 hPa NE 4.8 mph /  7.7 km/h 12.9 mph /  20.8 km/h 75 % 0.0 in /  0 mm
18:32 8.4 °F /  -13.1 °C 4.4 °F /  -15.3 °C 1028.7 in /  34831.8 hPa NNE 4.8 mph /  7.7 km/h 19.3 mph /  31.1 km/h 76 % 0.0 in /  0 mm
18:42 8.3 °F /  -13.2 °C 4.3 °F /  -15.4 °C 1028.7 in /  34831.8 hPa NE 12.9 mph /  20.8 km/h 17.7 mph /  28.5 km/h 76 % 0.0 in /  0 mm
18:52 8.2 °F /  -13.2 °C 4.4 °F /  -15.3 °C 1028.7 in /  34831.8 hPa North 9.7 mph /  15.6 km/h 17.7 mph /  28.5 km/h 77 % 0.0 in /  0 mm
18:57 8.1 °F /  -13.3 °C 4.3 °F /  -15.4 °C 1028.7 in /  34831.8 hPa NNE 9.7 mph /  15.6 km/h 17.7 mph /  28.5 km/h 77 % 0.0 in /  0 mm
19:02 7.9 °F /  -13.4 °C 4.3 °F /  -15.4 °C 1028.7 in /  34831.8 hPa ENE 6.4 mph /  10.3 km/h 17.7 mph /  28.5 km/h 78 % 0.0 in /  0 mm
19:12 7.5 °F /  -13.6 °C 4.1 °F /  -15.5 °C 1028.7 in /  34831.8 hPa NNE 3.2 mph /  5.1 km/h 16.1 mph /  25.9 km/h 79 % 0.0 in /  0 mm
19:17 7.4 °F /  -13.7 °C 4.0 °F /  -15.6 °C 1028.3 in /  34818.2 hPa NE 9.7 mph /  15.6 km/h 11.3 mph /  18.2 km/h 79 % 0.0 in /  0 mm
19:22 7.5 °F /  -13.6 °C 4.1 °F /  -15.5 °C 1028.7 in /  34831.8 hPa NE 11.3 mph /  18.2 km/h 12.9 mph /  20.8 km/h 79 % 0.0 in /  0 mm
19:32 7.4 °F /  -13.7 °C 4.2 °F /  -15.4 °C 1028.7 in /  34831.8 hPa NE 8.0 mph /  12.9 km/h 14.5 mph /  23.3 km/h 80 % 0.0 in /  0 mm
19:37 7.4 °F /  -13.7 °C 4.2 °F /  -15.4 °C 1028.7 in /  34831.8 hPa NE 6.4 mph /  10.3 km/h 14.5 mph /  23.3 km/h 80 % 0.0 in /  0 mm
19:42 7.4 °F /  -13.7 °C 4.2 °F /  -15.4 °C 1028.7 in /  34831.8 hPa ENE 14.5 mph /  23.3 km/h 14.5 mph /  23.3 km/h 80 % 0.0 in /  0 mm
19:47 7.4 °F /  -13.7 °C 4.0 °F /  -15.6 °C 1028.7 in /  34831.8 hPa NE 6.4 mph /  10.3 km/h 14.5 mph /  23.3 km/h 79 % 0.0 in /  0 mm
19:52 7.4 °F /  -13.7 °C 4.0 °F /  -15.6 °C 1028.7 in /  34831.8 hPa NE 1.6 mph /  2.6 km/h 17.7 mph /  28.5 km/h 79 % 0.0 in /  0 mm
19:57 7.3 °F /  -13.7 °C 3.9 °F /  -15.6 °C 1028.7 in /  34831.8 hPa NNE 8.0 mph /  12.9 km/h 17.7 mph /  28.5 km/h 79 % 0.0 in /  0 mm
20:02 7.3 °F /  -13.7 °C 4.1 °F /  -15.5 °C 1028.7 in /  34831.8 hPa NE 9.7 mph /  15.6 km/h 17.7 mph /  28.5 km/h 80 % 0.0 in /  0 mm
20:12 7.2 °F /  -13.8 °C 4.0 °F /  -15.6 °C 1028.7 in /  34831.8 hPa NNE 3.2 mph /  5.1 km/h 16.1 mph /  25.9 km/h 80 % 0.0 in /  0 mm
20:17 7.1 °F /  -13.8 °C 3.9 °F /  -15.6 °C 1028.7 in /  34831.8 hPa NNE 4.8 mph /  7.7 km/h 16.1 mph /  25.9 km/h 80 % 0.0 in /  0 mm
20:22 7.1 °F /  -13.8 °C 3.9 °F /  -15.6 °C 1028.7 in /  34831.8 hPa North 6.4 mph /  10.3 km/h 16.1 mph /  25.9 km/h 80 % 0.0 in /  0 mm
20:27 7.0 °F /  -13.9 °C 3.8 °F /  -15.7 °C 1028.7 in /  34831.8 hPa North 6.4 mph /  10.3 km/h 14.5 mph /  23.3 km/h 80 % 0.0 in /  0 mm
20:32 6.9 °F /  -13.9 °C 3.7 °F /  -15.7 °C 1028.7 in /  34831.8 hPa NE 8.0 mph /  12.9 km/h 14.5 mph /  23.3 km/h 80 % 0.0 in /  0 mm
20:37 6.9 °F /  -13.9 °C 3.7 °F /  -15.7 °C 1028.7 in /  34831.8 hPa NE 6.4 mph /  10.3 km/h 14.5 mph /  23.3 km/h 80 % 0.0 in /  0 mm
20:47 6.8 °F /  -14 °C 3.8 °F /  -15.7 °C 1028.7 in /  34831.8 hPa NE 9.7 mph /  15.6 km/h 16.1 mph /  25.9 km/h 81 % 0.0 in /  0 mm
20:57 6.7 °F /  -14.1 °C 3.7 °F /  -15.7 °C 1028.7 in /  34831.8 hPa NNE 1.6 mph /  2.6 km/h 12.9 mph /  20.8 km/h 81 % 0.0 in /  0 mm
21:02 6.6 °F /  -14.1 °C 3.7 °F /  -15.7 °C 1028.7 in /  34831.8 hPa ENE 11.3 mph /  18.2 km/h 12.9 mph /  20.8 km/h 82 % 0.0 in /  0 mm
21:07 6.6 °F /  -14.1 °C 3.7 °F /  -15.7 °C 1028.7 in /  34831.8 hPa Calm   12.9 mph /  20.8 km/h 82 % 0.0 in /  0 mm
21:12 6.4 °F /  -14.2 °C 3.6 °F /  -15.8 °C 1028.7 in /  34831.8 hPa NNW 1.6 mph /  2.6 km/h 12.9 mph /  20.8 km/h 82 % 0.0 in /  0 mm
21:22 6.3 °F /  -14.3 °C 3.6 °F /  -15.8 °C 1028.7 in /  34831.8 hPa NNE 3.2 mph /  5.1 km/h 14.5 mph /  23.3 km/h 83 % 0.0 in /  0 mm
21:27 6.2 °F /  -14.3 °C 3.5 °F /  -15.8 °C 1028.7 in /  34831.8 hPa NNW 4.8 mph /  7.7 km/h 14.5 mph /  23.3 km/h 83 % 0.0 in /  0 mm
21:32 6.4 °F /  -14.2 °C 3.7 °F /  -15.7 °C 1028.7 in /  34831.8 hPa NNW 3.2 mph /  5.1 km/h 9.7 mph /  15.6 km/h 83 % 0.0 in /  0 mm
21:37 6.4 °F /  -14.2 °C 3.7 °F /  -15.7 °C 1028.7 in /  34831.8 hPa NE 6.4 mph /  10.3 km/h 14.5 mph /  23.3 km/h 83 % 0.0 in /  0 mm
21:42 6.5 °F /  -14.2 °C 3.6 °F /  -15.8 °C 1028.7 in /  34831.8 hPa North 6.4 mph /  10.3 km/h 14.5 mph /  23.3 km/h 82 % 0.0 in /  0 mm
21:47 6.5 °F /  -14.2 °C 3.6 °F /  -15.8 °C 1029.0 in /  34841.9 hPa NE 4.8 mph /  7.7 km/h 17.7 mph /  28.5 km/h 82 % 0.0 in /  0 mm
21:52 6.4 °F /  -14.2 °C 3.7 °F /  -15.7 °C 1029.0 in /  34841.9 hPa NNE 3.2 mph /  5.1 km/h 17.7 mph /  28.5 km/h 83 % 0.0 in /  0 mm
21:57 6.4 °F /  -14.2 °C 3.7 °F /  -15.7 °C 1029.0 in /  34841.9 hPa NNE 12.9 mph /  20.8 km/h 17.7 mph /  28.5 km/h 83 % 0.0 in /  0 mm
22:02 6.4 °F /  -14.2 °C 3.7 °F /  -15.7 °C 1029.0 in /  34841.9 hPa NNE 4.8 mph /  7.7 km/h 17.7 mph /  28.5 km/h 83 % 0.0 in /  0 mm
22:12 6.3 °F /  -14.3 °C 3.6 °F /  -15.8 °C 1029.0 in /  34841.9 hPa North 8.0 mph /  12.9 km/h 17.7 mph /  28.5 km/h 83 % 0.0 in /  0 mm
22:17 6.2 °F /  -14.3 °C 3.7 °F /  -15.7 °C 1029.0 in /  34841.9 hPa North 8.0 mph /  12.9 km/h 17.7 mph /  28.5 km/h 84 % 0.0 in /  0 mm
22:22 6.2 °F /  -14.3 °C 3.7 °F /  -15.7 °C 1029.0 in /  34841.9 hPa NNE 4.8 mph /  7.7 km/h 17.7 mph /  28.5 km/h 84 % 0.0 in /  0 mm
22:32 6.1 °F /  -14.4 °C 3.6 °F /  -15.8 °C 1029.0 in /  34841.9 hPa ENE 4.8 mph /  7.7 km/h 17.7 mph /  28.5 km/h 84 % 0.0 in /  0 mm
22:37 5.9 °F /  -14.5 °C 3.4 °F /  -15.9 °C 1029.0 in /  34841.9 hPa NNE 4.8 mph /  7.7 km/h 16.1 mph /  25.9 km/h 84 % 0.0 in /  0 mm
22:42 6.0 °F /  -14.4 °C 3.5 °F /  -15.8 °C 1029.0 in /  34841.9 hPa NNE 8.0 mph /  12.9 km/h 16.1 mph /  25.9 km/h 84 % 0.0 in /  0 mm
22:52 5.7 °F /  -14.6 °C 3.4 °F /  -15.9 °C 1029.0 in /  34841.9 hPa North 3.2 mph /  5.1 km/h 12.9 mph /  20.8 km/h 85 % 0.0 in /  0 mm
22:57 5.6 °F /  -14.7 °C 3.3 °F /  -15.9 °C 1029.0 in /  34841.9 hPa NNW 3.2 mph /  5.1 km/h 12.9 mph /  20.8 km/h 85 % 0.0 in /  0 mm
23:07 5.2 °F /  -14.9 °C 3.1 °F /  -16.1 °C 1029.0 in /  34841.9 hPa North 4.8 mph /  7.7 km/h 6.4 mph /  10.3 km/h 86 % 0.0 in /  0 mm
23:17 5.1 °F /  -14.9 °C 3.1 °F /  -16.1 °C 1029.0 in /  34841.9 hPa NNW 3.2 mph /  5.1 km/h 8.0 mph /  12.9 km/h 87 % 0.0 in /  0 mm
23:22 4.9 °F /  -15.1 °C 2.9 °F /  -16.2 °C 1029.0 in /  34841.9 hPa NNW 4.8 mph /  7.7 km/h 8.0 mph /  12.9 km/h 87 % 0.0 in /  0 mm
23:27 4.9 °F /  -15.1 °C 3.1 °F /  -16.1 °C 1029.0 in /  34841.9 hPa NNE 4.8 mph /  7.7 km/h 8.0 mph /  12.9 km/h 88 % 0.0 in /  0 mm
23:32 4.8 °F /  -15.1 °C 3.0 °F /  -16.1 °C 1029.0 in /  34841.9 hPa NNW 3.2 mph /  5.1 km/h 8.0 mph /  12.9 km/h 88 % 0.0 in /  0 mm
23:37 4.8 °F /  -15.1 °C 3.0 °F /  -16.1 °C 1029.0 in /  34841.9 hPa North 9.7 mph /  15.6 km/h 9.7 mph /  15.6 km/h 88 % 0.0 in /  0 mm
23:42 4.8 °F /  -15.1 °C 3.0 °F /  -16.1 °C 1028.7 in /  34831.8 hPa NE 3.2 mph /  5.1 km/h 9.7 mph /  15.6 km/h 88 % 0.0 in /  0 mm
23:52 4.7 °F /  -15.2 °C 2.9 °F /  -16.2 °C 1028.7 in /  34831.8 hPa NE 1.6 mph /  2.6 km/h 11.3 mph /  18.2 km/h 88 % 0.0 in /  0 mm
23:57 4.6 °F /  -15.2 °C 2.8 °F /  -16.2 °C 1028.7 in /  34831.8 hPa NNW 1.6 mph /  2.6 km/h 11.3 mph /  18.2 km/h 88 % 0.0 in /  0 mm
Meteo18
Compliments of Weather Underground - 4 mb

Script developed by  Jim McMurry - jmcmurry@mwt.net Adapted for the template by  Wim van der Kuil - Leuven-Template.eu

You find our weather info also at:

European Weather Network

Weather Underground

Equipment we use:

Weather-station
Davis Vue

Weather-program
Meteobridge

Weather-server
Raspberry PI 2 B+

Provider
1 and 1

Davis Vue

Meteobridge

Raspberry PI 2 B+

1 and 1